createdAt,value
2018-12-23T00:00:26.041Z,256.9
2018-12-23T00:01:26.180Z,258.6
2018-12-23T00:02:26.030Z,259
2018-12-23T00:03:26.017Z,259.5
2018-12-23T00:04:26.003Z,259.8
2018-12-23T00:05:26.006Z,259.9
2018-12-23T00:06:26.080Z,244.5
2018-12-23T00:07:26.109Z,238
2018-12-23T00:08:26.039Z,228
2018-12-23T00:09:25.986Z,220.9
2018-12-23T00:10:26.037Z,217.7
2018-12-23T00:11:26.025Z,216.3
2018-12-23T00:12:26.043Z,215.6
2018-12-23T00:13:26.091Z,221.3
2018-12-23T00:14:25.972Z,241.8
2018-12-23T00:15:26.118Z,251.8
2018-12-23T00:16:26.056Z,256.4
2018-12-23T00:17:26.075Z,258.3
2018-12-23T00:18:26.020Z,259.2
2018-12-23T00:19:26.039Z,259.3
2018-12-23T00:20:25.975Z,248.5
2018-12-23T00:21:26.059Z,242.5
2018-12-23T00:22:26.007Z,239.8
2018-12-23T00:23:26.097Z,238.6
2018-12-23T00:24:26.039Z,238
2018-12-23T00:25:25.936Z,237.7
2018-12-23T00:26:26.077Z,240.7
2018-12-23T00:27:26.056Z,250.8
2018-12-23T00:28:26.041Z,255.7
2018-12-23T00:29:26.068Z,258
2018-12-23T00:30:25.944Z,258.3
2018-12-23T00:31:25.955Z,259.2
2018-12-23T00:32:26.049Z,254.2
2018-12-23T00:33:28.005Z,245.3
2018-12-23T00:34:26.045Z,241.1
2018-12-23T00:35:26.025Z,239.1
2018-12-23T00:36:25.971Z,238.3
2018-12-23T00:37:25.990Z,237.9
2018-12-23T00:38:26.101Z,237.7
2018-12-23T00:39:26.006Z,237.6
2018-12-23T00:40:25.998Z,234.4
2018-12-23T00:41:26.069Z,224
2018-12-23T00:42:25.953Z,219.2
2018-12-23T00:43:25.935Z,216.9
2018-12-23T00:44:26.076Z,215.9
2018-12-23T00:45:25.966Z,215.4
2018-12-23T00:46:25.995Z,215.2
2018-12-23T00:47:25.947Z,215.1
2018-12-23T00:48:25.967Z,215
2018-12-23T00:49:26.081Z,215
2018-12-23T00:50:26.012Z,215
2018-12-23T00:51:25.940Z,215
2018-12-23T00:52:25.924Z,215
2018-12-23T00:53:25.904Z,215
2018-12-23T00:54:25.985Z,215
2018-12-23T00:55:26.031Z,215
2018-12-23T00:56:25.997Z,215
2018-12-23T00:57:25.986Z,215
2018-12-23T00:58:25.870Z,215
2018-12-23T00:59:25.972Z,215
2018-12-23T01:00:25.945Z,215
2018-12-23T01:01:26.070Z,215
2018-12-23T01:02:26.039Z,215
2018-12-23T01:03:25.856Z,215
2018-12-23T01:04:25.973Z,215
2018-12-23T01:05:32.406Z,215
2018-12-23T01:06:25.999Z,215
2018-12-23T01:07:25.940Z,215
2018-12-23T01:08:25.997Z,215
2018-12-23T01:09:25.902Z,215
2018-12-23T01:10:26.023Z,215
2018-12-23T01:11:25.952Z,215
2018-12-23T01:12:25.965Z,215
2018-12-23T01:13:27.039Z,215
2018-12-23T01:15:30.101Z,215
2018-12-23T01:16:30.104Z,215
2018-12-23T01:17:30.090Z,215
2018-12-23T01:18:30.285Z,215
2018-12-23T01:19:30.033Z,215
2018-12-23T01:20:30.016Z,215
2018-12-23T01:21:30.107Z,215
2018-12-23T01:22:30.011Z,215
2018-12-23T01:23:30.107Z,215
2018-12-23T01:24:30.054Z,215
2018-12-23T01:25:29.999Z,215
2018-12-23T01:26:30.060Z,215
2018-12-23T01:27:30.083Z,215
2018-12-23T01:28:30.126Z,215
2018-12-23T01:29:30.055Z,215
2018-12-23T01:30:30.023Z,215
2018-12-23T01:31:30.044Z,215
2018-12-23T01:32:30.072Z,215
2018-12-23T01:33:30.173Z,220.4
2018-12-23T01:34:38.213Z,228.1
2018-12-23T01:35:38.425Z,233.1
2018-12-23T01:36:30.001Z,235.5
2018-12-23T01:37:30.111Z,236.6
2018-12-23T01:38:30.097Z,237.1
2018-12-23T01:39:30.032Z,237.3
2018-12-23T01:40:30.186Z,237.1
2018-12-23T01:41:30.082Z,237.3
2018-12-23T01:42:30.023Z,244.4
2018-12-23T01:43:30.086Z,253.7
2018-12-23T01:44:30.019Z,255.9
2018-12-23T01:45:30.075Z,257.6
2018-12-23T01:46:30.409Z,258.9
2018-12-23T01:47:29.980Z,259.5
2018-12-23T01:48:30.090Z,259.8
2018-12-23T01:49:30.165Z,259.9
2018-12-23T01:50:30.064Z,248.6
2018-12-23T01:51:30.023Z,230.4
2018-12-23T01:52:30.020Z,222.1
2018-12-23T01:53:30.061Z,218.2
2018-12-23T01:54:30.124Z,216.5
2018-12-23T01:55:30.072Z,215.7
2018-12-23T01:56:30.068Z,215.3
2018-12-23T01:57:30.079Z,215.7
2018-12-23T01:58:29.985Z,216.1
2018-12-23T01:59:30.087Z,224.8
2018-12-23T02:00:30.142Z,231.6
2018-12-23T02:01:30.045Z,234.8
2018-12-23T02:02:30.076Z,236.2
2018-12-23T02:03:29.975Z,236.9
2018-12-23T02:04:30.049Z,237.2
2018-12-23T02:05:30.126Z,237.4
2018-12-23T02:06:30.034Z,237.4
2018-12-23T02:07:29.962Z,237.5
2018-12-23T02:08:29.973Z,237.5
2018-12-23T02:09:30.154Z,237.5
2018-12-23T02:10:30.040Z,237.5
2018-12-23T02:11:30.020Z,237.5
2018-12-23T02:12:30.065Z,237.2
2018-12-23T02:13:30.076Z,237.3
2018-12-23T02:14:29.999Z,232.9
2018-12-23T02:15:30.009Z,223.3
2018-12-23T02:16:30.117Z,223
2018-12-23T02:17:30.118Z,230.8
2018-12-23T02:18:30.053Z,211.1
2018-12-23T02:19:30.115Z,187.6
2018-12-23T02:20:29.969Z,177.7
2018-12-23T02:21:30.013Z,173.4
2018-12-23T02:22:30.045Z,171.6
2018-12-23T02:23:30.108Z,170.7
2018-12-23T02:24:30.100Z,170.3
2018-12-23T02:25:30.056Z,170.2
2018-12-23T02:26:30.056Z,170.1
2018-12-23T02:27:30.012Z,170
2018-12-23T02:28:30.022Z,170
2018-12-23T02:29:30.082Z,170
2018-12-23T02:30:30.078Z,170
2018-12-23T02:31:31.316Z,170
2018-12-23T02:32:30.023Z,170
2018-12-23T02:33:30.020Z,170
2018-12-23T02:34:30.095Z,170
2018-12-23T02:35:30.104Z,170
2018-12-23T02:36:29.952Z,170
2018-12-23T02:37:30.048Z,170
2018-12-23T02:38:30.006Z,170
2018-12-23T02:39:30.010Z,170
2018-12-23T02:40:30.070Z,170
2018-12-23T02:41:35.270Z,170
2018-12-23T02:42:30.175Z,170
2018-12-23T02:43:30.051Z,170
2018-12-23T02:44:30.005Z,170
2018-12-23T02:45:30.018Z,170
2018-12-23T02:46:30.055Z,170
2018-12-23T02:47:30.042Z,170
2018-12-23T02:48:30.031Z,181.1
2018-12-23T02:49:30.048Z,187.2
2018-12-23T02:50:30.032Z,190.1
2018-12-23T02:51:30.028Z,191.4
2018-12-23T02:52:30.044Z,192
2018-12-23T02:53:30.076Z,192.3
2018-12-23T02:54:30.026Z,192.4
2018-12-23T02:55:30.007Z,192.4
2018-12-23T02:56:30.014Z,192.5
2018-12-23T02:57:30.113Z,192.5
2018-12-23T02:58:29.987Z,192.5
2018-12-23T02:59:30.036Z,192.5
2018-12-23T03:00:30.005Z,192.5
2018-12-23T03:01:30.036Z,192.5
2018-12-23T03:02:30.113Z,192.5
2018-12-23T03:03:30.135Z,192.5
2018-12-23T03:04:30.050Z,192.5
2018-12-23T03:05:29.976Z,192.5
2018-12-23T03:06:30.072Z,192.5
2018-12-23T03:07:29.985Z,192.5
2018-12-23T03:08:30.040Z,183.6
2018-12-23T03:09:29.962Z,176.3
2018-12-23T03:10:30.059Z,172.9
2018-12-23T03:11:30.007Z,171.4
2018-12-23T03:12:30.048Z,170.6
2018-12-23T03:13:29.994Z,170.3
2018-12-23T03:14:29.944Z,170.1
2018-12-23T03:15:30.080Z,170.1
2018-12-23T03:16:30.104Z,170
2018-12-23T03:17:29.984Z,170
2018-12-23T03:18:29.980Z,170
2018-12-23T03:19:29.953Z,170
2018-12-23T03:20:29.928Z,170
2018-12-23T03:21:30.112Z,170
2018-12-23T03:22:30.028Z,170
2018-12-23T03:23:30.039Z,170
2018-12-23T03:24:30.059Z,170
2018-12-23T03:25:29.908Z,170
2018-12-23T03:26:30.014Z,170
2018-12-23T03:27:30.041Z,170
2018-12-23T03:28:30.016Z,170
2018-12-23T03:29:30.076Z,170
2018-12-23T03:30:30.040Z,170
2018-12-23T03:31:30.036Z,170
2018-12-23T03:32:30.024Z,170
2018-12-23T03:33:30.054Z,170
2018-12-23T03:34:29.994Z,170
2018-12-23T03:35:30.060Z,170
2018-12-23T03:36:29.913Z,170
2018-12-23T03:37:30.042Z,170
2018-12-23T03:38:30.113Z,170
2018-12-23T03:39:30.027Z,170
2018-12-23T03:40:30.037Z,170
2018-12-23T03:41:29.965Z,170
2018-12-23T03:42:30.004Z,169.6
2018-12-23T03:43:30.022Z,169.8
2018-12-23T03:44:30.051Z,169.9
2018-12-23T03:45:30.008Z,170
2018-12-23T03:46:29.996Z,170
2018-12-23T03:47:30.021Z,170
2018-12-23T03:48:29.982Z,170
2018-12-23T03:49:30.056Z,170
2018-12-23T03:50:30.021Z,170
2018-12-23T03:51:30.000Z,170
2018-12-23T03:52:29.964Z,170
2018-12-23T03:53:29.959Z,170
2018-12-23T03:54:30.083Z,170
2018-12-23T03:55:30.076Z,170
2018-12-23T03:56:30.009Z,170
2018-12-23T03:57:29.938Z,170
2018-12-23T03:58:30.077Z,170
2018-12-23T03:59:30.006Z,170
2018-12-23T04:00:30.063Z,170
2018-12-23T04:01:29.982Z,170
2018-12-23T04:02:29.993Z,170
2018-12-23T04:03:29.947Z,170
2018-12-23T04:04:29.968Z,170
2018-12-23T04:05:30.024Z,170
2018-12-23T04:06:29.988Z,170
2018-12-23T04:07:30.044Z,170
2018-12-23T04:08:30.014Z,170
2018-12-23T04:09:30.028Z,170
2018-12-23T04:10:29.999Z,170
2018-12-23T04:11:30.075Z,170
2018-12-23T04:12:29.970Z,170
2018-12-23T04:13:30.068Z,170
2018-12-23T04:14:29.963Z,170
2018-12-23T04:15:30.052Z,170
2018-12-23T04:16:30.086Z,170
2018-12-23T04:17:30.017Z,170
2018-12-23T04:18:29.964Z,170
2018-12-23T04:19:30.013Z,170
2018-12-23T04:20:30.014Z,170
2018-12-23T04:21:30.048Z,170
2018-12-23T04:22:30.056Z,170
2018-12-23T04:23:30.085Z,170
2018-12-23T04:24:30.010Z,170
2018-12-23T04:25:29.901Z,170
2018-12-23T04:26:29.981Z,170
2018-12-23T04:27:30.006Z,170
2018-12-23T04:28:30.071Z,170
2018-12-23T04:29:29.952Z,170
2018-12-23T04:30:29.902Z,170
2018-12-23T04:31:30.015Z,170
2018-12-23T04:32:30.982Z,170
2018-12-23T04:33:30.074Z,170
2018-12-23T04:34:29.975Z,170
2018-12-23T04:35:31.021Z,170
2018-12-23T04:36:38.049Z,170
2018-12-23T04:37:30.047Z,170
2018-12-23T04:38:29.989Z,170
2018-12-23T04:39:30.013Z,170
2018-12-23T04:40:29.953Z,170
2018-12-23T04:41:29.892Z,170
2018-12-23T04:42:30.061Z,170
2018-12-23T04:43:30.041Z,170
2018-12-23T04:44:30.008Z,170
2018-12-23T04:45:29.947Z,170
2018-12-23T04:46:29.933Z,170
2018-12-23T04:47:30.002Z,170
2018-12-23T04:48:29.989Z,170
2018-12-23T04:49:30.020Z,170
2018-12-23T04:50:30.016Z,170
2018-12-23T04:51:30.021Z,170
2018-12-23T04:52:29.901Z,170
2018-12-23T04:53:30.009Z,170
2018-12-23T04:54:30.056Z,170
2018-12-23T04:55:30.052Z,170
2018-12-23T04:56:30.042Z,170
2018-12-23T04:57:29.982Z,170
2018-12-23T04:58:29.937Z,170
2018-12-23T04:59:29.963Z,170
2018-12-23T05:00:30.017Z,170
2018-12-23T05:01:30.044Z,170
2018-12-23T05:02:29.955Z,170
2018-12-23T05:03:29.958Z,170
2018-12-23T05:04:29.960Z,170
2018-12-23T05:05:29.986Z,170
2018-12-23T05:06:29.967Z,170
2018-12-23T05:07:29.988Z,170
2018-12-23T05:08:29.992Z,170
2018-12-23T05:09:29.951Z,167.5
2018-12-23T05:10:30.063Z,203.1
2018-12-23T05:11:29.972Z,231.9
2018-12-23T05:12:29.946Z,222.7
2018-12-23T05:13:30.034Z,218.3
2018-12-23T05:14:29.892Z,223
2018-12-23T05:15:30.133Z,220.8
2018-12-23T05:16:29.928Z,227.4
2018-12-23T05:17:30.057Z,220.1
2018-12-23T05:18:29.976Z,205.1
2018-12-23T05:19:29.980Z,198.2
2018-12-23T05:20:30.016Z,195.1
2018-12-23T05:21:30.033Z,193.7
2018-12-23T05:22:30.062Z,193.1
2018-12-23T05:23:29.940Z,192.8
2018-12-23T05:24:30.006Z,192.6
2018-12-23T05:25:30.122Z,192.6
2018-12-23T05:26:29.960Z,192.5
2018-12-23T05:27:29.944Z,192.5
2018-12-23T05:28:29.960Z,192.5
2018-12-23T05:29:30.005Z,192.5
2018-12-23T05:30:29.987Z,192.5
2018-12-23T05:31:30.005Z,192.5
2018-12-23T05:32:29.989Z,192.5
2018-12-23T05:33:30.584Z,192.5
2018-12-23T05:34:29.981Z,192.5
2018-12-23T05:35:29.913Z,192.5
2018-12-23T05:36:30.025Z,192.5
2018-12-23T05:37:29.971Z,192.5
2018-12-23T05:38:29.981Z,192.5
2018-12-23T05:39:29.963Z,192.5
2018-12-23T05:40:29.924Z,192.5
2018-12-23T05:41:30.014Z,192.5
2018-12-23T05:42:29.970Z,192.5
2018-12-23T05:43:29.934Z,192.5
2018-12-23T05:44:30.050Z,192.5
2018-12-23T05:45:29.920Z,192.5
2018-12-23T05:46:29.965Z,192.5
2018-12-23T05:47:29.866Z,192.5
2018-12-23T05:48:30.002Z,192.5
2018-12-23T05:49:29.883Z,192.5
2018-12-23T05:50:29.971Z,192.5
2018-12-23T05:51:30.026Z,192.5
2018-12-23T05:52:29.860Z,192.5
2018-12-23T05:53:29.923Z,192.5
2018-12-23T05:54:29.944Z,192.5
2018-12-23T05:55:29.924Z,192.5
2018-12-23T05:56:30.032Z,192.5
2018-12-23T05:57:29.900Z,192.5
2018-12-23T05:58:29.958Z,192.5
2018-12-23T05:59:29.942Z,192.5
2018-12-23T06:00:29.942Z,192.5
2018-12-23T06:01:30.071Z,192.5
2018-12-23T06:02:29.951Z,192.5
2018-12-23T06:03:30.211Z,192.5
2018-12-23T06:04:29.870Z,192.5
2018-12-23T06:05:30.094Z,192.5
2018-12-23T06:06:29.955Z,192.5
2018-12-23T06:07:29.933Z,192.5
2018-12-23T06:08:29.871Z,192.5
2018-12-23T06:09:29.930Z,192.5
2018-12-23T06:10:30.023Z,192.5
2018-12-23T06:11:29.946Z,192.5
2018-12-23T06:12:29.981Z,192.5
2018-12-23T06:13:29.957Z,192.5
2018-12-23T06:14:29.914Z,192.5
2018-12-23T06:15:29.965Z,192.5
2018-12-23T06:16:29.907Z,192.5
2018-12-23T06:17:30.009Z,192.5
2018-12-23T06:18:29.933Z,192.5
2018-12-23T06:19:29.882Z,192.5
2018-12-23T06:20:29.997Z,192.5
2018-12-23T06:21:29.901Z,192.5
2018-12-23T06:22:29.935Z,192.5
2018-12-23T06:23:30.030Z,192.5
2018-12-23T06:24:29.974Z,192.5
2018-12-23T06:25:29.864Z,192.5
2018-12-23T06:26:29.992Z,192.5
2018-12-23T06:27:29.945Z,192.5
2018-12-23T06:28:29.952Z,192.5
2018-12-23T06:29:30.023Z,192.5
2018-12-23T06:30:30.167Z,192.5
2018-12-23T06:31:30.067Z,192.5
2018-12-23T06:32:29.854Z,192.5
2018-12-23T06:33:29.964Z,192.5
2018-12-23T06:34:30.026Z,192.5
2018-12-23T06:35:29.944Z,192.5
2018-12-23T06:36:29.861Z,192.5
2018-12-23T06:37:29.890Z,192.5
2018-12-23T06:38:29.921Z,192.5
2018-12-23T06:39:29.968Z,192.5
2018-12-23T06:40:29.901Z,192.5
2018-12-23T06:41:29.849Z,195.6
2018-12-23T06:42:29.868Z,206
2018-12-23T06:43:29.916Z,210.8
2018-12-23T06:44:30.158Z,213.1
2018-12-23T06:45:29.913Z,214.1
2018-12-23T06:46:29.920Z,214.6
2018-12-23T06:47:29.853Z,214.8
2018-12-23T06:48:30.410Z,214.9
2018-12-23T06:49:36.871Z,215
2018-12-23T06:50:29.950Z,215.2
2018-12-23T06:51:32.567Z,215.1
2018-12-23T06:52:31.861Z,215.1
2018-12-23T06:53:30.270Z,215
2018-12-23T06:54:30.159Z,215
2018-12-23T06:55:30.735Z,215
2018-12-23T06:56:30.677Z,215
2018-12-23T06:57:34.120Z,215.3
2018-12-23T06:58:30.368Z,215.4
2018-12-23T06:59:30.489Z,215.2
2018-12-23T07:00:30.217Z,215.1
2018-12-23T07:01:29.898Z,215
2018-12-23T07:02:29.960Z,215
2018-12-23T07:03:29.918Z,215
2018-12-23T07:04:29.932Z,215
2018-12-23T07:05:29.941Z,215
2018-12-23T07:06:29.882Z,215
2018-12-23T07:07:30.018Z,215
2018-12-23T07:08:30.051Z,215
2018-12-23T07:09:29.837Z,215
2018-12-23T07:10:29.883Z,215
2018-12-23T07:11:29.919Z,215
2018-12-23T07:12:30.010Z,215
2018-12-23T07:13:29.891Z,215
2018-12-23T07:14:29.844Z,215
2018-12-23T07:15:29.957Z,212.5
2018-12-23T07:16:29.948Z,213.9
2018-12-23T07:17:30.029Z,214.5
2018-12-23T07:18:29.976Z,214.8
2018-12-23T07:19:29.952Z,214.9
2018-12-23T07:20:29.937Z,214.9
2018-12-23T07:21:29.830Z,215
2018-12-23T07:22:29.867Z,215
2018-12-23T07:23:29.930Z,215
2018-12-23T07:24:29.997Z,215
2018-12-23T07:25:29.824Z,215
2018-12-23T07:26:29.947Z,215
2018-12-23T07:27:29.896Z,215
2018-12-23T07:28:30.018Z,215
2018-12-23T07:29:29.976Z,215
2018-12-23T07:30:29.838Z,215
2018-12-23T07:31:29.994Z,215
2018-12-23T07:32:32.362Z,215
2018-12-23T07:33:30.001Z,215.3
2018-12-23T07:34:29.893Z,215.1
2018-12-23T07:35:29.839Z,215.1
2018-12-23T07:36:29.819Z,214.5
2018-12-23T07:37:31.133Z,211.2
2018-12-23T07:38:30.043Z,201.2
2018-12-23T07:39:30.588Z,196.5
2018-12-23T07:40:29.827Z,194.4
2018-12-23T07:41:29.965Z,193.4
2018-12-23T07:42:29.881Z,192.9
2018-12-23T07:43:29.837Z,192.7
2018-12-23T07:44:29.949Z,192
2018-12-23T07:45:29.968Z,192.3
2018-12-23T07:46:29.836Z,192.4
2018-12-23T07:47:30.004Z,192.5
2018-12-23T07:48:29.978Z,192.5
2018-12-23T07:49:29.877Z,192.5
2018-12-23T07:50:29.930Z,192.5
2018-12-23T07:51:29.876Z,192.5
2018-12-23T07:52:29.875Z,192.5
2018-12-23T07:53:29.888Z,192.5
2018-12-23T07:54:29.921Z,192.5
2018-12-23T07:55:29.864Z,192.5
2018-12-23T07:56:29.853Z,192.5
2018-12-23T07:57:29.834Z,192.5
2018-12-23T07:58:29.863Z,192.5
2018-12-23T07:59:29.932Z,192.5
2018-12-23T08:00:29.897Z,192.5
2018-12-23T08:01:29.864Z,192.5
2018-12-23T08:02:29.894Z,192.5
2018-12-23T08:03:29.860Z,192.5
2018-12-23T08:04:29.896Z,192.5
2018-12-23T08:05:29.823Z,192.5
2018-12-23T08:06:29.946Z,192.5
2018-12-23T08:07:38.360Z,192.5
2018-12-23T08:08:29.878Z,192.5
2018-12-23T08:09:29.901Z,192.5
2018-12-23T08:10:29.801Z,192.5
2018-12-23T08:11:30.301Z,192.5
2018-12-23T08:12:29.901Z,192.5
2018-12-23T08:13:32.749Z,192.5
2018-12-23T08:14:29.931Z,192.5
2018-12-23T08:15:29.799Z,192.5
2018-12-23T08:16:29.808Z,192.5
2018-12-23T08:17:29.952Z,192.5
2018-12-23T08:18:29.955Z,192.5
2018-12-23T08:19:30.019Z,192.5
2018-12-23T08:20:30.024Z,192.5
2018-12-23T08:21:29.789Z,192.5
2018-12-23T08:22:29.982Z,192.5
2018-12-23T08:23:29.927Z,192.5
2018-12-23T08:24:29.809Z,192.5
2018-12-23T08:25:37.824Z,192.5
2018-12-23T08:26:30.085Z,192.5
2018-12-23T08:27:29.878Z,192.5
2018-12-23T08:28:30.306Z,192.5
2018-12-23T08:29:29.870Z,192.5
2018-12-23T08:30:29.814Z,193.6
2018-12-23T08:31:29.926Z,205.3
2018-12-23T08:32:32.042Z,210.4
2018-12-23T08:33:29.985Z,213.1
2018-12-23T08:34:29.877Z,214.1
2018-12-23T08:35:29.799Z,214.6
2018-12-23T08:36:29.925Z,214.8
2018-12-23T08:37:29.876Z,214.9
2018-12-23T08:38:29.912Z,215
2018-12-23T08:39:29.879Z,215
2018-12-23T08:40:29.864Z,203.3
2018-12-23T08:41:29.929Z,197.5
2018-12-23T08:42:29.983Z,194.8
2018-12-23T08:43:29.926Z,193.6
2018-12-23T08:44:29.899Z,193
2018-12-23T08:45:29.851Z,192.7
2018-12-23T08:46:29.911Z,192.6
2018-12-23T08:47:29.805Z,192.6
2018-12-23T08:48:30.023Z,192.5
2018-12-23T08:49:29.870Z,192.5
2018-12-23T08:50:29.890Z,192.5
2018-12-23T08:51:29.870Z,192.5
2018-12-23T08:52:29.805Z,192.5
2018-12-23T08:53:29.959Z,192.5
2018-12-23T08:54:29.878Z,192.5
2018-12-23T08:55:29.818Z,192.5
2018-12-23T08:56:29.915Z,192.5
2018-12-23T08:57:29.776Z,192.5
2018-12-23T08:58:30.899Z,192.5
2018-12-23T08:59:29.897Z,192.5
2018-12-23T09:00:29.835Z,192.5
2018-12-23T09:01:29.859Z,192.5
2018-12-23T09:02:29.972Z,192.5
2018-12-23T09:03:29.890Z,192.5
2018-12-23T09:04:29.873Z,192.5
2018-12-23T09:05:29.905Z,192.5
2018-12-23T09:06:29.841Z,192.5
2018-12-23T09:07:29.818Z,192.5
2018-12-23T09:08:29.821Z,192.5
2018-12-23T09:09:29.884Z,192.5
2018-12-23T09:10:29.923Z,192.5
2018-12-23T09:11:29.865Z,192.5
2018-12-23T09:12:29.834Z,192.5
2018-12-23T09:13:33.268Z,192.5
2018-12-23T09:14:29.815Z,201.4
2018-12-23T09:15:29.745Z,208.5
2018-12-23T09:16:30.089Z,212
2018-12-23T09:17:29.872Z,213.6
2018-12-23T09:18:30.102Z,214.3
2018-12-23T09:19:30.090Z,214.7
2018-12-23T09:20:30.209Z,214.9
2018-12-23T09:21:29.833Z,214.9
2018-12-23T09:22:29.875Z,215
2018-12-23T09:23:30.200Z,215
2018-12-23T09:24:36.425Z,215
2018-12-23T09:25:29.817Z,215.3
2018-12-23T09:26:29.822Z,215.1
2018-12-23T09:27:29.924Z,215.1
2018-12-23T09:28:35.034Z,215
2018-12-23T09:29:29.886Z,215.9
2018-12-23T09:30:29.785Z,215.4
2018-12-23T09:31:30.095Z,196.8
2018-12-23T09:32:29.850Z,182
2018-12-23T09:33:29.883Z,175.4
2018-12-23T09:34:29.839Z,172.5
2018-12-23T09:35:29.831Z,171.2
2018-12-23T09:36:29.841Z,170.5
2018-12-23T09:37:29.830Z,170.3
2018-12-23T09:38:29.830Z,170.1
2018-12-23T09:39:29.820Z,170.1
2018-12-23T09:40:29.996Z,170
2018-12-23T09:41:29.781Z,170
2018-12-23T09:42:37.477Z,170
2018-12-23T09:43:35.643Z,170
2018-12-23T09:44:32.799Z,170
2018-12-23T09:45:35.605Z,180.5
2018-12-23T09:46:29.793Z,187
2018-12-23T09:47:29.926Z,189.9
2018-12-23T09:48:29.910Z,191.3
2018-12-23T09:49:30.116Z,191.9
2018-12-23T09:50:29.836Z,192.2
2018-12-23T09:51:29.818Z,192.4
2018-12-23T09:52:29.781Z,192.4
2018-12-23T09:53:29.845Z,192.5
2018-12-23T09:54:29.909Z,192.5
2018-12-23T09:55:29.792Z,192.5
2018-12-23T09:56:29.828Z,192.5
2018-12-23T09:57:29.797Z,192.5
2018-12-23T09:58:29.867Z,192.5
2018-12-23T09:59:29.761Z,192.5
2018-12-23T10:00:29.884Z,192.5
2018-12-23T10:01:29.842Z,192.5
2018-12-23T10:02:29.872Z,192.5
2018-12-23T10:03:29.809Z,192.5
2018-12-23T10:04:29.794Z,192.5
2018-12-23T10:05:29.893Z,192.5
2018-12-23T10:06:29.807Z,192.5
2018-12-23T10:07:29.881Z,192.5
2018-12-23T10:08:29.840Z,192.5
2018-12-23T10:09:29.839Z,192.5
2018-12-23T10:10:32.151Z,192.5
2018-12-23T10:11:29.880Z,192.5
2018-12-23T10:12:29.801Z,192.5
2018-12-23T10:13:29.793Z,192.5
2018-12-23T10:14:31.960Z,192.5
2018-12-23T10:15:29.813Z,192.5
2018-12-23T10:16:29.957Z,192.5
2018-12-23T10:17:29.788Z,192.5
2018-12-23T10:18:29.846Z,192.5
2018-12-23T10:19:29.827Z,192.5
2018-12-23T10:20:29.805Z,192.5
2018-12-23T10:21:29.873Z,192.5
2018-12-23T10:22:29.860Z,192.5
2018-12-23T10:23:29.906Z,192.5
2018-12-23T10:24:29.897Z,192.5
2018-12-23T10:25:29.741Z,192.5
2018-12-23T10:26:29.819Z,192.5
2018-12-23T10:27:29.837Z,192.5
2018-12-23T10:28:29.905Z,192.5
2018-12-23T10:29:31.822Z,192.5
2018-12-23T10:30:29.879Z,192.5
2018-12-23T10:31:29.867Z,192.5
2018-12-23T10:32:29.873Z,192.5
2018-12-23T10:33:29.837Z,192.5
2018-12-23T10:34:29.873Z,192.5
2018-12-23T10:35:29.955Z,192.5
2018-12-23T10:36:29.736Z,192.5
2018-12-23T10:37:29.876Z,192.5
2018-12-23T10:38:29.766Z,192.5
2018-12-23T10:39:29.897Z,192.5
2018-12-23T10:40:29.897Z,192.5
2018-12-23T10:41:29.761Z,192.5
2018-12-23T10:42:29.831Z,192.5
2018-12-23T10:43:29.816Z,192.5
2018-12-23T10:44:30.030Z,192.5
2018-12-23T10:45:29.881Z,192.5
2018-12-23T10:46:29.862Z,192.5
2018-12-23T10:47:29.823Z,192.5
2018-12-23T10:48:31.559Z,192.5
2018-12-23T10:49:29.842Z,192.5
2018-12-23T10:50:29.896Z,192.5
2018-12-23T10:51:29.830Z,192.5
2018-12-23T10:52:29.765Z,192.5
2018-12-23T10:53:29.821Z,192.5
2018-12-23T10:54:29.824Z,192.5
2018-12-23T10:55:29.889Z,192.5
2018-12-23T10:56:29.789Z,192.5
2018-12-23T10:57:29.835Z,192.5
2018-12-23T10:58:29.954Z,192.5
2018-12-23T10:59:29.841Z,192.5
2018-12-23T11:00:29.768Z,192.5
2018-12-23T11:01:29.968Z,192.5
2018-12-23T11:02:29.821Z,192.5
2018-12-23T11:03:32.907Z,192.5
2018-12-23T11:04:33.339Z,192.5
2018-12-23T11:05:29.753Z,192.1
2018-12-23T11:06:29.882Z,192.3
2018-12-23T11:07:30.372Z,192.4
2018-12-23T11:08:30.480Z,192.5
2018-12-23T11:09:29.810Z,192.5
2018-12-23T11:10:29.863Z,192.5
2018-12-23T11:11:29.831Z,192.5
2018-12-23T11:12:29.890Z,192.5
2018-12-23T11:13:29.743Z,192.5
2018-12-23T11:14:29.793Z,192.5
2018-12-23T11:15:29.759Z,192.5
2018-12-23T11:16:29.804Z,192.5
2018-12-23T11:17:29.867Z,192.5
2018-12-23T11:18:29.838Z,192.5
2018-12-23T11:19:29.849Z,192.5
2018-12-23T11:20:29.824Z,192.5
2018-12-23T11:21:29.767Z,192.5
2018-12-23T11:22:29.897Z,192.5
2018-12-23T11:23:29.802Z,192.5
2018-12-23T11:24:29.755Z,192.5
2018-12-23T11:25:29.868Z,192.5
2018-12-23T11:26:29.870Z,192.5
2018-12-23T11:27:30.508Z,192.5
2018-12-23T11:28:29.818Z,192.5
2018-12-23T11:29:29.837Z,192.5
2018-12-23T11:30:29.840Z,192.5
2018-12-23T11:31:29.873Z,192.5
2018-12-23T11:32:29.889Z,192.5
2018-12-23T11:33:29.825Z,204.5
2018-12-23T11:34:29.885Z,210.1
2018-12-23T11:35:29.786Z,212.7
2018-12-23T11:36:29.795Z,213.9
2018-12-23T11:37:29.830Z,214.5
2018-12-23T11:38:37.665Z,214.8
2018-12-23T11:39:29.989Z,214.9
2018-12-23T11:40:29.836Z,214.9
2018-12-23T11:41:29.739Z,215
2018-12-23T11:42:29.831Z,215
2018-12-23T11:43:29.828Z,215
2018-12-23T11:44:30.023Z,215
2018-12-23T11:45:29.738Z,215
2018-12-23T11:46:29.760Z,215
2018-12-23T11:47:29.767Z,215
2018-12-23T11:48:29.838Z,215
2018-12-23T11:49:29.784Z,215
2018-12-23T11:50:29.771Z,215
2018-12-23T11:51:29.808Z,215
2018-12-23T11:52:29.829Z,215
2018-12-23T11:53:29.785Z,215
2018-12-23T11:54:30.805Z,215
2018-12-23T11:55:29.825Z,215.3
2018-12-23T11:56:29.822Z,215.1
2018-12-23T11:57:29.901Z,215.1
2018-12-23T11:58:29.789Z,215
2018-12-23T11:59:29.895Z,215
2018-12-23T12:00:29.758Z,215
2018-12-23T12:01:29.806Z,215
2018-12-23T12:02:29.697Z,215
2018-12-23T12:03:29.761Z,215
2018-12-23T12:04:29.860Z,215
2018-12-23T12:05:29.845Z,215
2018-12-23T12:06:29.829Z,215
2018-12-23T12:07:33.580Z,215
2018-12-23T12:08:29.798Z,215
2018-12-23T12:09:29.806Z,215
2018-12-23T12:10:29.861Z,215
2018-12-23T12:11:32.194Z,215
2018-12-23T12:12:29.703Z,215.3
2018-12-23T12:13:29.740Z,215.1
2018-12-23T12:14:29.739Z,215.1
2018-12-23T12:15:29.838Z,215
2018-12-23T12:16:29.800Z,215
2018-12-23T12:17:29.865Z,215
2018-12-23T12:18:29.837Z,215
2018-12-23T12:19:29.788Z,215
2018-12-23T12:20:29.856Z,215
2018-12-23T12:21:29.763Z,215
2018-12-23T12:22:29.901Z,215
2018-12-23T12:23:29.837Z,215
2018-12-23T12:24:29.721Z,215
2018-12-23T12:25:29.848Z,215
2018-12-23T12:26:29.964Z,215
2018-12-23T12:27:31.493Z,215
2018-12-23T12:28:29.812Z,215
2018-12-23T12:29:29.846Z,215
2018-12-23T12:30:29.822Z,215
2018-12-23T12:31:29.807Z,215
2018-12-23T12:32:29.827Z,215
2018-12-23T12:33:29.808Z,215
2018-12-23T12:34:29.882Z,215
2018-12-23T12:35:30.088Z,215
2018-12-23T12:36:29.748Z,215
2018-12-23T12:37:34.306Z,215
2018-12-23T12:38:29.768Z,215
2018-12-23T12:39:29.874Z,215
2018-12-23T12:40:30.040Z,214.1
2018-12-23T12:41:29.778Z,214.6
2018-12-23T12:42:29.806Z,214.8
2018-12-23T12:43:29.818Z,214.9
2018-12-23T12:44:29.850Z,215
2018-12-23T12:45:29.736Z,215
2018-12-23T12:46:29.735Z,215
2018-12-23T12:47:29.956Z,215
2018-12-23T12:48:29.928Z,215
2018-12-23T12:49:29.972Z,215
2018-12-23T12:50:29.863Z,215
2018-12-23T12:51:29.899Z,215
2018-12-23T12:52:29.742Z,215
2018-12-23T12:53:29.779Z,215
2018-12-23T12:54:30.000Z,215
2018-12-23T12:55:29.922Z,215
2018-12-23T12:56:29.867Z,215
2018-12-23T12:57:29.705Z,215
2018-12-23T12:58:29.937Z,215
2018-12-23T12:59:29.764Z,215
2018-12-23T13:00:30.381Z,215
2018-12-23T13:01:29.735Z,215
2018-12-23T13:02:29.776Z,215
2018-12-23T13:03:29.768Z,215
2018-12-23T13:04:29.784Z,215
2018-12-23T13:05:29.789Z,215
2018-12-23T13:06:29.840Z,215
2018-12-23T13:07:29.786Z,215
2018-12-23T13:08:32.710Z,215
2018-12-23T13:09:29.783Z,215.3
2018-12-23T13:10:29.844Z,215.1
2018-12-23T13:11:29.758Z,215.1
2018-12-23T13:12:29.783Z,215
2018-12-23T13:13:29.723Z,215